FL22 weather

St Lucie Medical Center Heliport
Port St Lucie, Florida, United States

Public forecast

Using degrees Fahrenheit for public forecast. Weather courtesy of forecast.io.

Closest aviation weather report (METAR) to St Lucie Medical Center Heliport

Closest report is Witham Field, 7.5 nm (13.9 km) SSE. Retrieved 2019/10/23 14:10 UTC (0 seconds ago):

KSUA 231410Z 36008KT 7SM VCSH SCT015 SCT028 28/23 A3003 RMK WIND SHIFT 1404Z

Closest aviation forecast (TAF) to St Lucie Medical Center Heliport

Closest forecast is Witham Field, 7.5 nm (13.9 km) SSE. Retrieved 2019/10/23 12:22 UTC (2 hours ago):

TAF KSUA 231120Z 2312/2412 31004KT P6SM SKC FM231400 04009KT P6SM SCT030 FM231600 05010KT P6SM VCSH BKN035 FM240100 08008KT P6SM VCSH BKN035